createdAt,value
2023-02-28T17:24:22.222Z,70.74
2023-02-28T17:25:16.057Z,66.06
2023-02-28T17:26:15.020Z,69.29
2023-02-28T17:27:15.032Z,70.25
2023-02-28T17:28:15.034Z,50.43
2023-02-28T17:29:15.027Z,50.43
2023-02-28T17:30:14.982Z,51.40
2023-02-28T17:31:15.025Z,49.15
2023-02-28T17:32:18.311Z,48.82
2023-02-28T17:33:14.952Z,49.79
2023-02-28T17:34:14.941Z,52.21
2023-02-28T17:35:14.933Z,50.60
2023-02-28T17:36:14.924Z,49.79
2023-02-28T17:37:14.987Z,50.27
2023-02-28T17:38:14.918Z,50.43
2023-02-28T17:39:14.917Z,49.31
2023-02-28T17:40:16.078Z,48.34
2023-02-28T17:41:16.035Z,49.31
2023-02-28T17:42:16.077Z,49.79
2023-02-28T17:43:16.110Z,54.95
2023-02-28T17:44:16.032Z,54.30
2023-02-28T17:45:16.097Z,49.15
2023-02-28T17:46:16.106Z,51.24
2023-02-28T17:47:16.065Z,49.79
2023-02-28T17:48:16.091Z,51.08
2023-02-28T17:49:16.003Z,48.98
2023-02-28T17:50:15.987Z,50.92
2023-02-28T17:51:15.977Z,51.40
2023-02-28T17:52:15.987Z,49.63
2023-02-28T17:53:15.988Z,52.53
2023-02-28T17:54:18.107Z,49.15
2023-02-28T17:55:15.981Z,49.79
2023-02-28T17:56:15.929Z,50.76
2023-02-28T17:57:15.969Z,49.15
2023-02-28T17:58:15.947Z,52.21
2023-02-28T17:59:15.963Z,50.60
2023-02-28T18:00:16.109Z,49.47
2023-02-28T18:01:15.967Z,49.63
2023-02-28T18:02:15.915Z,49.47
2023-02-28T18:03:15.917Z,49.47
2023-02-28T18:04:15.872Z,50.11
2023-02-28T18:05:15.874Z,49.79
2023-02-28T18:06:15.898Z,49.47
2023-02-28T18:07:16.913Z,50.11
2023-02-28T18:08:15.850Z,49.47
2023-02-28T18:09:15.855Z,48.82
2023-02-28T18:10:15.869Z,48.98
2023-02-28T18:11:15.839Z,49.15
2023-02-28T18:12:15.843Z,48.02
2023-02-28T18:13:15.828Z,48.50
2023-02-28T18:14:15.809Z,48.18
2023-02-28T18:15:15.803Z,49.15
2023-02-28T18:16:15.904Z,49.79
2023-02-28T18:17:15.828Z,48.18
2023-02-28T18:18:15.817Z,48.66
2023-02-28T18:19:15.818Z,55.11
2023-02-28T18:20:15.795Z,50.60
2023-02-28T18:21:15.808Z,50.11
2023-02-28T18:22:15.795Z,53.50
2023-02-28T18:23:15.766Z,49.31
2023-02-28T18:24:15.763Z,49.47
2023-02-28T18:25:15.750Z,48.50
2023-02-28T18:26:15.736Z,49.79
2023-02-28T18:27:15.752Z,50.76
2023-02-28T18:28:15.730Z,49.47
2023-02-28T18:29:15.717Z,49.15
2023-02-28T18:30:15.706Z,50.27
2023-02-28T18:31:15.720Z,57.20
2023-02-28T18:32:15.809Z,49.15
2023-02-28T18:33:15.727Z,50.76
2023-02-28T18:34:15.731Z,48.66
2023-02-28T18:35:15.666Z,48.98
2023-02-28T18:36:15.669Z,52.21
2023-02-28T18:37:15.673Z,47.86
2023-02-28T18:38:15.661Z,48.82
2023-02-28T18:39:15.681Z,48.98
2023-02-28T18:40:15.663Z,49.31
2023-02-28T18:41:15.633Z,49.47
2023-02-28T18:42:15.637Z,48.82
2023-02-28T18:43:15.622Z,48.50
2023-02-28T18:44:20.162Z,48.66
2023-02-28T18:45:17.622Z,48.34
2023-02-28T18:46:15.643Z,47.86
2023-02-28T18:47:15.592Z,51.24
2023-02-28T18:48:15.623Z,49.63
2023-02-28T18:49:15.614Z,51.56
2023-02-28T18:50:15.581Z,53.66
2023-02-28T18:51:15.574Z,48.98
2023-02-28T18:52:15.619Z,48.66
2023-02-28T18:53:15.550Z,48.50
2023-02-28T18:54:15.558Z,48.98
2023-02-28T18:55:15.521Z,48.98
2023-02-28T18:56:15.560Z,49.79
2023-02-28T18:57:15.564Z,47.86
2023-02-28T18:58:15.550Z,50.43
2023-02-28T18:59:15.514Z,48.66
2023-02-28T19:00:15.494Z,51.08
2023-02-28T19:01:15.536Z,49.15
2023-02-28T19:02:15.523Z,47.70
2023-02-28T19:03:15.487Z,47.21
2023-02-28T19:04:15.551Z,51.24
2023-02-28T19:05:15.482Z,48.98
2023-02-28T19:06:15.472Z,49.47
2023-02-28T19:07:15.510Z,50.27
2023-02-28T19:08:15.454Z,49.47
2023-02-28T19:09:15.484Z,50.60
2023-02-28T19:10:15.434Z,48.02
2023-02-28T19:11:15.467Z,47.53
2023-02-28T19:12:15.433Z,48.66
2023-02-28T19:13:15.416Z,48.82
2023-02-28T19:14:15.406Z,49.31
2023-02-28T19:15:15.419Z,57.52
2023-02-28T19:16:15.441Z,51.88
2023-02-28T19:17:15.376Z,48.82
2023-02-28T19:18:15.406Z,48.66
2023-02-28T19:19:15.344Z,50.76
2023-02-28T19:20:15.418Z,48.66
2023-02-28T19:21:15.356Z,51.08
2023-02-28T19:22:15.452Z,47.86
2023-02-28T19:23:15.381Z,47.86
2023-02-28T19:24:15.342Z,52.69
2023-02-28T19:25:15.318Z,48.66
2023-02-28T19:26:15.319Z,48.02
2023-02-28T19:27:15.350Z,48.18
2023-02-28T19:28:15.305Z,50.11
2023-02-28T19:29:15.284Z,51.88
2023-02-28T19:30:15.308Z,48.50
2023-02-28T19:31:15.416Z,50.11
2023-02-28T19:32:15.481Z,48.82
2023-02-28T19:33:15.254Z,49.95
2023-02-28T19:34:15.298Z,48.82
2023-02-28T19:35:15.252Z,48.34
2023-02-28T19:36:15.232Z,48.18
2023-02-28T19:37:15.314Z,48.34
2023-02-28T19:38:15.226Z,50.60
2023-02-28T19:39:15.257Z,49.95
2023-02-28T19:40:15.865Z,50.11
2023-02-28T19:41:15.237Z,49.31
2023-02-28T19:42:15.233Z,49.47
2023-02-28T19:43:15.211Z,49.47
2023-02-28T19:44:15.208Z,50.76
2023-02-28T19:45:15.197Z,48.66
2023-02-28T19:46:15.332Z,51.40
2023-02-28T19:47:15.181Z,48.50
2023-02-28T19:48:15.183Z,49.15
2023-02-28T19:49:15.185Z,48.66
2023-02-28T19:50:15.134Z,47.53
